Time;durP1;ratioP1;P1;durP2;ratioP2;P2;SDS_P1;SDS_P2;PMS_P1;PMS_P2;Temp;Humidity;BMP_temperature;BMP_pressure;BME280_temperature;BME280_humidity;BME280_pressure;Samples;Min_cycle;Max_cycle;Signal;HPM_P1;HPM_P2
2021/10/22 00:01:46;;;;;;;9.50;5.35;;;;;;;15.34;66.95;101797.81;5024147;28;20411;-65
2021/10/22 00:04:13;;;;;;;13.15;6.20;;;;;;;15.32;66.95;101797.78;5013115;28;20038;-64
2021/10/22 00:06:41;;;;;;;10.57;4.90;;;;;;;15.32;67.04;101795.13;5012172;28;20063;-64
2021/10/22 00:09:10;;;;;;;11.00;5.57;;;;;;;15.33;66.99;101791.59;5012562;28;20767;-64
2021/10/22 00:11:43;;;;;;;10.93;5.43;;;;;;;15.33;67.12;101793.38;5013277;28;20038;-64
2021/10/22 00:14:10;;;;;;;11.13;4.57;;;;;;;15.33;66.96;101788.94;5012437;28;20121;-64
2021/10/22 00:16:38;;;;;;;10.80;5.65;;;;;;;15.35;66.76;101788.97;5012830;28;20038;-65
2021/10/22 00:19:05;;;;;;;10.82;5.20;;;;;;;15.34;66.83;101789.84;5012653;28;20751;-64
2021/10/22 00:21:32;;;;;;;9.55;5.13;;;;;;;15.31;66.83;101785.34;5012208;28;20499;-64
2021/10/22 00:24:00;;;;;;;11.63;5.55;;;;;;;15.33;66.81;101788.03;5011650;28;20577;-64
2021/10/22 00:26:29;;;;;;;6.82;3.88;;;;;;;15.34;66.68;101784.50;5011479;28;20050;-64
2021/10/22 00:28:56;;;;;;;13.13;5.43;;;;;;;15.33;66.55;101778.31;5000529;28;20030;-64
2021/10/22 00:31:23;;;;;;;7.80;4.78;;;;;;;15.34;66.61;101776.53;5011887;28;20550;-64
2021/10/22 00:33:51;;;;;;;9.40;5.32;;;;;;;15.34;66.47;101784.50;5011843;28;20053;-63
2021/10/22 00:36:19;;;;;;;11.05;5.47;;;;;;;15.34;66.61;101773.88;5011732;28;20034;-65
2021/10/22 00:38:46;;;;;;;11.10;5.35;;;;;;;15.33;66.45;101772.97;5011756;28;20037;-64
2021/10/22 00:41:15;;;;;;;11.30;5.75;;;;;;;15.36;66.58;101766.81;5011297;28;20209;-64
2021/10/22 00:43:44;;;;;;;9.90;5.45;;;;;;;15.37;66.49;101764.16;5012597;28;20093;-64
2021/10/22 00:46:11;;;;;;;8.93;4.65;;;;;;;15.38;66.30;101762.38;5011554;28;20507;-63
2021/10/22 00:48:40;;;;;;;10.57;6.15;;;;;;;15.40;66.25;101769.53;5011381;28;20045;-63
2021/10/22 00:51:11;;;;;;;8.30;4.72;;;;;;;15.40;66.29;101758.88;5012237;28;20045;-64
2021/10/22 00:53:39;;;;;;;11.50;5.53;;;;;;;15.39;66.30;101773.06;5011630;28;20042;-64
2021/10/22 00:56:08;;;;;;;11.98;5.82;;;;;;;15.39;66.38;101765.06;5011324;28;20125;-64
2021/10/22 00:58:37;;;;;;;10.00;5.45;;;;;;;15.38;66.30;101775.69;5011412;28;20042;-64
2021/10/22 01:01:06;;;;;;;14.82;5.75;;;;;;;15.38;66.30;101765.03;5011246;28;20408;-64
2021/10/22 01:03:34;;;;;;;11.85;5.32;;;;;;;15.37;66.28;101765.91;5011020;28;20045;-63
2021/10/22 01:06:02;;;;;;;12.05;5.60;;;;;;;15.36;66.40;101762.34;5011411;28;20408;-65
2021/10/22 01:08:30;;;;;;;10.75;5.78;;;;;;;15.35;66.23;101759.69;5011813;28;20049;-64
2021/10/22 01:10:59;;;;;;;12.05;6.22;;;;;;;15.27;66.46;101761.38;5011426;28;20042;-64
2021/10/22 01:13:26;;;;;;;11.02;5.70;;;;;;;15.22;66.64;101758.66;5011076;28;20487;-64
2021/10/22 01:15:54;;;;;;;10.55;5.45;;;;;;;15.19;66.86;101763.03;5010837;28;20404;-64
2021/10/22 01:18:26;;;;;;;10.70;4.88;;;;;;;15.15;67.06;101757.69;5011332;28;20041;-63
2021/10/22 01:20:59;;;;;;;10.82;6.10;;;;;;;15.13;67.17;101750.56;5015369;28;20067;-65
2021/10/22 01:23:26;;;;;;;11.65;5.60;;;;;;;15.13;67.15;101754.09;5029832;28;20088;-64
2021/10/22 01:25:54;;;;;;;10.90;6.07;;;;;;;15.14;67.22;101755.00;5024780;28;20041;-64
2021/10/22 01:28:21;;;;;;;12.07;5.65;;;;;;;15.14;67.02;101745.25;5031491;28;20051;-63
2021/10/22 01:30:50;;;;;;;11.00;5.93;;;;;;;15.16;67.03;101756.78;5020594;28;20062;-64
2021/10/22 01:33:18;;;;;;;11.57;5.90;;;;;;;15.15;67.06;101748.81;5011866;28;20037;-64
2021/10/22 01:35:46;;;;;;;11.45;5.95;;;;;;;15.15;66.90;101754.13;5011219;28;20510;-63
2021/10/22 01:38:17;;;;;;;11.40;5.63;;;;;;;15.11;66.79;101746.97;5011089;28;20042;-63
2021/10/22 01:40:45;;;;;;;10.75;5.75;;;;;;;15.08;66.84;101747.84;5011823;28;20503;-64
2021/10/22 01:43:12;;;;;;;10.57;5.82;;;;;;;15.04;67.02;101753.97;5023230;28;20483;-64
2021/10/22 01:45:40;;;;;;;9.75;5.50;;;;;;;15.02;66.97;101744.22;5013915;28;20045;-64
2021/10/22 01:48:08;;;;;;;9.70;5.53;;;;;;;14.95;67.16;101745.91;5011749;28;20062;-64
2021/10/22 01:50:35;;;;;;;9.50;5.20;;;;;;;14.87;67.11;101744.88;5011517;28;20037;-64
2021/10/22 01:53:02;;;;;;;9.38;5.30;;;;;;;14.81;67.28;101747.47;5010423;28;20046;-64
2021/10/22 01:55:31;;;;;;;10.63;5.47;;;;;;;14.77;67.43;101741.19;5011269;28;20048;-64
2021/10/22 01:58:00;;;;;;;11.23;5.88;;;;;;;14.77;67.47;101748.25;5011337;28;20044;-63
2021/10/22 02:00:28;;;;;;;10.43;5.55;;;;;;;14.77;67.67;101740.28;5010432;28;20046;-64
2021/10/22 02:02:55;;;;;;;9.95;5.45;;;;;;;14.77;67.76;101742.09;4994118;28;20080;-64
2021/10/22 02:05:23;;;;;;;9.93;5.05;;;;;;;14.78;68.09;101744.75;5010713;28;20041;-64
2021/10/22 02:07:50;;;;;;;10.65;4.78;;;;;;;14.80;68.09;101742.13;5011360;28;20057;-64
2021/10/22 02:10:17;;;;;;;8.18;5.05;;;;;;;14.81;68.17;101744.81;5010513;28;20044;-64
2021/10/22 02:12:46;;;;;;;9.77;5.10;;;;;;;14.83;68.28;101747.50;5010502;28;20046;-64
2021/10/22 02:15:13;;;;;;;7.50;4.38;;;;;;;14.83;68.35;101748.38;5010890;28;20039;-63
2021/10/22 02:17:41;;;;;;;8.32;4.65;;;;;;;14.86;68.38;101744.84;5010765;28;20190;-65
2021/10/22 02:20:09;;;;;;;11.50;5.35;;;;;;;14.87;68.33;101744.88;5019283;28;20129;-64
2021/10/22 02:22:37;;;;;;;7.82;4.13;;;;;;;14.87;68.39;101739.56;5011462;28;20049;-64
2021/10/22 02:25:05;;;;;;;9.20;4.43;;;;;;;14.87;68.47;101742.22;5010533;28;20049;-65
2021/10/22 02:27:32;;;;;;;9.80;4.90;;;;;;;14.87;68.53;101750.19;5010902;28;20037;-63
2021/10/22 02:30:01;;;;;;;7.72;4.10;;;;;;;14.86;68.59;101744.84;5010181;28;20121;-63
2021/10/22 02:32:29;;;;;;;9.18;4.72;;;;;;;14.85;68.61;101753.69;5010840;28;20111;-64
2021/10/22 02:34:56;;;;;;;10.20;5.03;;;;;;;14.85;68.52;101748.38;5010538;28;20049;-64
2021/10/22 02:37:23;;;;;;;11.27;5.50;;;;;;;14.83;68.65;101753.72;5010371;28;20042;-65
2021/10/22 02:39:51;;;;;;;9.15;4.90;;;;;;;14.81;68.65;101751.88;5005763;28;20041;-64
2021/10/22 02:42:18;;;;;;;7.97;4.53;;;;;;;14.79;68.69;101751.84;4990122;28;20034;-63
2021/10/22 02:44:46;;;;;;;8.38;3.97;;;;;;;14.77;68.61;101754.47;4991415;28;20038;-63
2021/10/22 02:47:15;;;;;;;8.38;4.88;;;;;;;14.77;68.71;101750.06;4991091;28;20042;-63
2021/10/22 02:49:42;;;;;;;9.82;4.85;;;;;;;14.77;68.75;101761.56;4990926;28;20034;-64
2021/10/22 02:52:10;;;;;;;8.85;5.18;;;;;;;14.78;68.60;101752.72;4990120;28;20051;-64
2021/10/22 02:54:38;;;;;;;9.05;5.03;;;;;;;14.77;68.45;101762.47;4990564;28;20035;-64
2021/10/22 02:57:05;;;;;;;9.50;4.80;;;;;;;14.76;68.53;101762.47;4991152;28;20127;-65
2021/10/22 02:59:32;;;;;;;10.32;5.38;;;;;;;14.75;68.61;101761.56;5010938;28;20046;-64
2021/10/22 03:02:00;;;;;;;10.25;5.07;;;;;;;14.74;68.58;101757.13;5009777;28;20049;-65
2021/10/22 03:04:29;;;;;;;8.77;4.72;;;;;;;14.70;68.72;101757.06;5010335;28;20046;-63
2021/10/22 03:06:56;;;;;;;8.15;4.38;;;;;;;14.67;68.71;101755.22;5010089;28;20049;-65
2021/10/22 03:09:23;;;;;;;9.57;4.50;;;;;;;14.67;68.76;101757.00;5009853;28;20045;-63
2021/10/22 03:11:51;;;;;;;8.27;4.35;;;;;;;14.68;68.86;101753.47;5010336;28;20046;-63
2021/10/22 03:14:20;;;;;;;12.13;5.53;;;;;;;14.69;68.78;101760.56;5010480;28;20045;-63
2021/10/22 03:16:48;;;;;;;8.38;4.63;;;;;;;14.72;68.70;101756.19;5010123;28;20050;-63
2021/10/22 03:19:15;;;;;;;9.88;4.47;;;;;;;14.74;68.67;101759.78;5008934;28;20041;-63
2021/10/22 03:21:44;;;;;;;8.82;4.53;;;;;;;14.75;68.67;101760.66;5009756;28;20420;-63
2021/10/22 03:24:11;;;;;;;6.10;3.67;;;;;;;14.76;68.56;101762.47;5009913;28;20045;-64
2021/10/22 03:26:39;;;;;;;7.95;4.35;;;;;;;14.77;68.50;101766.00;5010031;28;20034;-64
2021/10/22 03:29:06;;;;;;;8.85;3.92;;;;;;;14.80;68.66;101769.59;4992360;28;20452;-64
2021/10/22 03:31:35;;;;;;;8.63;4.00;;;;;;;14.81;68.52;101765.19;5010069;28;20046;-64
2021/10/22 03:34:02;;;;;;;7.93;4.03;;;;;;;14.79;68.43;101767.81;5010011;28;20117;-64
2021/10/22 03:36:30;;;;;;;8.25;4.25;;;;;;;14.77;68.46;101756.25;4999966;28;20046;-63
2021/10/22 03:38:59;;;;;;;10.40;4.47;;;;;;;14.79;68.35;101764.25;4993776;28;20045;-64
2021/10/22 03:41:26;;;;;;;9.05;4.63;;;;;;;14.76;68.24;101767.78;4993938;28;20107;-64
2021/10/22 03:43:54;;;;;;;14.82;3.95;;;;;;;14.73;68.18;101765.06;4993495;28;20043;-64
2021/10/22 03:46:21;;;;;;;8.82;4.85;;;;;;;14.69;68.26;101764.13;4993886;28;20053;-64
2021/10/22 03:48:48;;;;;;;11.02;4.43;;;;;;;14.63;68.36;101760.50;4993614;28;20404;-63
2021/10/22 03:51:16;;;;;;;7.47;3.95;;;;;;;14.61;68.39;101762.22;4993981;28;20038;-63
2021/10/22 03:53:43;;;;;;;9.18;4.10;;;;;;;14.61;68.44;101767.53;4993826;28;20049;-63
2021/10/22 03:56:12;;;;;;;8.35;4.22;;;;;;;14.62;68.27;101772.88;4994379;28;20034;-63
2021/10/22 03:58:40;;;;;;;13.88;5.75;;;;;;;14.63;68.26;101777.34;4992914;28;20043;-64
2021/10/22 04:01:07;;;;;;;7.15;4.43;;;;;;;14.60;68.27;101777.28;4993938;28;20050;-64
2021/10/22 04:03:36;;;;;;;8.43;3.97;;;;;;;14.60;68.21;101777.28;5009161;28;20050;-64
2021/10/22 04:06:03;;;;;;;7.53;4.10;;;;;;;14.59;68.32;101777.25;5012801;28;20049;-63
2021/10/22 04:08:31;;;;;;;9.57;3.92;;;;;;;14.57;68.37;101781.66;5012517;28;20056;-64
2021/10/22 04:10:58;;;;;;;7.57;3.78;;;;;;;14.53;68.30;101785.13;5013286;28;20049;-64
2021/10/22 04:13:27;;;;;;;8.75;3.90;;;;;;;14.51;68.32;101778.88;5012447;28;20507;-64
2021/10/22 04:15:55;;;;;;;6.78;3.47;;;;;;;14.48;68.39;101779.75;5012530;28;20045;-63
2021/10/22 04:18:22;;;;;;;7.63;3.80;;;;;;;14.44;68.55;101785.00;5012608;28;20048;-64
2021/10/22 04:20:50;;;;;;;7.10;3.65;;;;;;;14.42;68.76;101778.75;5011824;28;20129;-64
2021/10/22 04:23:17;;;;;;;9.15;3.63;;;;;;;14.41;68.85;101776.94;5012274;28;20076;-64
2021/10/22 04:25:45;;;;;;;9.75;3.75;;;;;;;14.39;68.96;101776.03;5012296;28;20040;-63
2021/10/22 04:28:13;;;;;;;10.95;4.15;;;;;;;14.36;68.94;101777.75;5012526;28;20041;-64
2021/10/22 04:30:41;;;;;;;8.45;4.18;;;;;;;14.36;69.00;101780.41;5012793;28;20038;-64
2021/10/22 04:33:09;;;;;;;7.82;3.60;;;;;;;14.37;68.96;101783.97;5011845;28;20049;-63
2021/10/22 04:35:37;;;;;;;7.80;3.05;;;;;;;14.38;69.02;101791.06;5013121;28;20042;-65
2021/10/22 04:40:30;;;;;;;6.97;3.95;;;;;;;14.43;69.19;101786.75;5004670;28;20049;-64
2021/10/22 04:41:03;;;;;;;4.90;2.60;;;;;;;14.47;69.25;101785.03;5012128;28;20397;-63
2021/10/22 04:43:30;;;;;;;7.57;3.25;;;;;;;14.48;69.22;101792.13;5011998;28;20626;-63
2021/10/22 04:45:59;;;;;;;5.95;3.55;;;;;;;14.50;69.26;101785.97;5012384;28;24930;-64
2021/10/22 04:48:28;;;;;;;4.90;2.78;;;;;;;14.53;69.10;101791.34;5011313;28;20046;-64
2021/10/22 04:50:56;;;;;;;8.70;3.67;;;;;;;14.54;69.03;101795.78;5012239;28;20046;-64
2021/10/22 04:53:26;;;;;;;6.30;3.05;;;;;;;14.53;69.04;101796.66;5011824;28;20042;-64
2021/10/22 04:55:53;;;;;;;5.22;2.80;;;;;;;14.54;69.09;101802.84;5011993;28;20041;-64
2021/10/22 04:58:21;;;;;;;6.65;3.17;;;;;;;14.54;69.11;101797.53;5011376;28;20037;-63
2021/10/22 05:00:48;;;;;;;8.52;3.67;;;;;;;14.57;69.11;101790.50;5011848;28;20053;-63
2021/10/22 05:03:17;;;;;;;9.00;3.60;;;;;;;14.59;69.13;101795.84;5011731;28;20116;-63
2021/10/22 05:05:44;;;;;;;5.50;2.95;;;;;;;14.59;69.01;101795.84;5012003;28;20053;-63
2021/10/22 05:08:12;;;;;;;6.95;3.03;;;;;;;14.60;69.13;101798.53;5010726;28;20042;-63
2021/10/22 05:10:39;;;;;;;6.22;3.33;;;;;;;14.73;69.18;101804.94;5011760;28;20499;-63
2021/10/22 05:13:06;;;;;;;8.15;3.13;;;;;;;15.00;69.53;101796.47;5011978;28;20410;-63
2021/10/22 05:15:34;;;;;;;6.32;2.97;;;;;;;15.28;69.54;101800.41;5011393;28;20042;-64
2021/10/22 05:18:01;;;;;;;5.95;2.63;;;;;;;15.52;69.40;101804.28;5011586;28;20048;-63
2021/10/22 05:20:30;;;;;;;6.30;2.90;;;;;;;15.76;69.37;101803.66;5011581;28;20056;-64
2021/10/22 05:22:57;;;;;;;6.40;2.72;;;;;;;15.94;68.92;101798.56;5011371;28;20037;-64
2021/10/22 05:25:25;;;;;;;7.40;2.85;;;;;;;16.18;68.93;101803.22;5011703;28;20048;-63
2021/10/22 05:27:52;;;;;;;4.97;3.40;;;;;;;16.39;68.82;101802.53;5011352;28;20065;-64
2021/10/22 05:30:19;;;;;;;4.30;2.22;;;;;;;16.60;68.32;101807.19;5010643;28;20120;-63
2021/10/22 05:32:47;;;;;;;8.38;2.80;;;;;;;16.78;67.46;101807.31;5011259;28;20049;-64
2021/10/22 05:35:14;;;;;;;5.82;2.60;;;;;;;16.98;67.39;101811.00;5011408;28;20120;-63
2021/10/22 05:37:43;;;;;;;4.82;2.40;;;;;;;17.22;67.25;101812.00;5011373;28;20037;-64
2021/10/22 05:40:11;;;;;;;4.88;2.47;;;;;;;17.39;66.23;101816.53;5010514;28;20408;-63
2021/10/22 05:42:38;;;;;;;5.40;2.15;;;;;;;17.57;65.36;101806.84;5011388;28;20510;-63
2021/10/22 05:45:07;;;;;;;5.60;2.60;;;;;;;17.67;63.64;101817.59;5010883;28;20038;-64
2021/10/22 05:47:35;;;;;;;4.72;2.60;;;;;;;17.79;63.10;101812.28;5011161;28;20057;-63
2021/10/22 05:50:04;;;;;;;3.60;2.13;;;;;;;17.92;62.36;101819.44;5010461;28;20480;-63
2021/10/22 05:52:32;;;;;;;6.15;2.60;;;;;;;18.03;61.96;101819.47;5011438;28;20034;-64
2021/10/22 05:55:00;;;;;;;7.15;3.03;;;;;;;18.16;61.45;101823.97;5011180;28;20056;-63
2021/10/22 05:57:28;;;;;;;5.25;2.53;;;;;;;18.30;60.84;101822.19;5010951;28;20049;-64
2021/10/22 05:59:55;;;;;;;5.43;2.65;;;;;;;18.45;60.69;101823.06;5009887;28;20635;-63
2021/10/22 06:02:23;;;;;;;4.43;2.70;;;;;;;18.64;60.42;101824.91;5011153;28;20038;-64
2021/10/22 06:04:50;;;;;;;5.90;2.63;;;;;;;18.83;60.06;101826.69;5010593;28;20042;-63
2021/10/22 06:07:17;;;;;;;6.38;2.92;;;;;;;19.02;59.65;101830.22;5011338;28;20034;-63
2021/10/22 06:09:44;;;;;;;5.88;3.00;;;;;;;19.22;59.30;101824.81;5010187;28;20499;-64
2021/10/22 06:12:13;;;;;;;6.40;2.50;;;;;;;19.40;59.02;101825.63;5009183;28;20121;-64
2021/10/22 06:14:41;;;;;;;6.57;2.88;;;;;;;19.58;58.59;101822.03;5010587;28;20117;-64
2021/10/22 06:17:08;;;;;;;5.45;2.92;;;;;;;19.74;57.95;101822.84;5010375;28;20496;-63
2021/10/22 06:19:39;;;;;;;4.22;2.45;;;;;;;19.90;57.50;101830.78;5004626;28;20038;-63
2021/10/22 06:22:17;;;;;;;4.05;2.05;;;;;;;20.08;57.31;101829.81;5010741;28;20057;-63
2021/10/22 06:24:44;;;;;;;4.30;2.50;;;;;;;20.23;56.40;101829.69;5010661;28;20511;-64
2021/10/22 06:27:13;;;;;;;4.68;2.63;;;;;;;20.43;56.37;101837.63;5010275;28;20045;-63
2021/10/22 06:29:40;;;;;;;7.38;2.63;;;;;;;20.66;55.83;101840.13;5011204;28;20045;-63
2021/10/22 06:32:08;;;;;;;3.95;2.47;;;;;;;20.91;56.18;101836.31;5001987;28;20042;-63
2021/10/22 06:34:36;;;;;;;5.90;2.50;;;;;;;21.14;55.44;101836.06;5011075;28;20046;-63
2021/10/22 06:37:03;;;;;;;7.05;2.80;;;;;;;21.30;54.18;101843.09;5010066;28;20041;-64
2021/10/22 06:39:31;;;;;;;3.97;2.45;;;;;;;21.44;53.47;101838.47;5009130;28;20045;-63
2021/10/22 06:41:58;;;;;;;4.55;2.80;;;;;;;21.65;52.94;101842.69;5010040;28;20061;-63
2021/10/22 06:44:27;;;;;;;4.50;2.30;;;;;;;21.86;52.42;101847.75;5010492;28;20503;-64
2021/10/22 06:46:56;;;;;;;5.07;2.40;;;;;;;22.12;52.35;101846.56;5009792;28;20561;-64
2021/10/22 06:49:23;;;;;;;2.95;2.00;;;;;;;22.36;51.10;101847.97;5009836;28;20164;-63
2021/10/22 06:51:51;;;;;;;3.20;2.10;;;;;;;22.54;50.33;101848.56;5009824;28;20507;-63
2021/10/22 06:54:18;;;;;;;4.85;2.50;;;;;;;22.73;49.42;101849.19;5010882;28;20121;-63
2021/10/22 06:56:46;;;;;;;5.35;2.33;;;;;;;22.92;49.51;101849.75;5010251;28;20408;-63
2021/10/22 06:59:13;;;;;;;5.00;3.10;;;;;;;23.15;49.03;101854.72;5010084;28;20046;-63
2021/10/22 07:01:42;;;;;;;4.75;2.95;;;;;;;23.29;48.14;101850.84;5009656;28;20451;-63
2021/10/22 07:04:11;;;;;;;5.10;2.97;;;;;;;23.45;47.36;101852.31;5010205;28;20034;-64
2021/10/22 07:09:24;;;;;;;5.60;3.50;;;;;;;23.92;46.69;101846.88;5007722;28;20124;-64
2021/10/22 07:11:51;;;;;;;7.28;3.70;;;;;;;24.02;46.42;101859.25;5013755;28;20053;-63
2021/10/22 07:14:18;;;;;;;6.40;3.40;;;;;;;24.09;46.23;101855.50;5013389;28;20037;-63
2021/10/22 07:16:47;;;;;;;6.38;3.60;;;;;;;24.13;45.99;101862.59;5013718;28;20038;-63
2021/10/22 07:19:15;;;;;;;5.00;3.80;;;;;;;24.25;46.12;101862.31;5012950;28;20042;-64
2021/10/22 07:21:48;;;;;;;6.38;3.70;;;;;;;24.43;45.88;101864.59;5013307;28;20034;-64
2021/10/22 07:24:19;;;;;;;5.97;3.45;;;;;;;24.59;45.40;101857.00;5014101;28;20519;-64
2021/10/22 07:26:46;;;;;;;6.32;3.83;;;;;;;24.70;44.87;101851.31;5012846;28;20065;-63
2021/10/22 07:29:14;;;;;;;6.10;3.42;;;;;;;24.75;44.45;101858.38;5013512;28;20403;-63
2021/10/22 07:31:41;;;;;;;4.97;3.30;;;;;;;24.83;44.01;101855.47;5013148;28;20049;-64
2021/10/22 07:34:12;;;;;;;6.07;3.42;;;;;;;25.04;44.06;101854.97;5013569;28;20066;-63
2021/10/22 07:36:39;;;;;;;5.43;3.30;;;;;;;25.21;43.23;101858.09;4996568;28;20057;-65
2021/10/22 07:39:07;;;;;;;7.50;3.60;;;;;;;25.18;43.29;101854.59;5013999;28;20045;-63
2021/10/22 07:41:34;;;;;;;6.00;3.47;;;;;;;25.20;44.04;101852.75;5013366;28;20046;-64
2021/10/22 07:44:02;;;;;;;8.43;3.60;;;;;;;25.29;43.96;101853.34;5013481;28;20038;-64
2021/10/22 07:46:30;;;;;;;6.43;3.50;;;;;;;25.36;44.52;101859.47;5013742;28;20057;-64
2021/10/22 07:48:57;;;;;;;5.20;3.33;;;;;;;25.57;43.74;101863.41;4986364;28;20043;-65
2021/10/22 07:51:26;;;;;;;5.35;2.72;;;;;;;25.57;43.04;101855.28;4993778;28;20031;-64
2021/10/22 07:53:53;;;;;;;5.05;2.60;;;;;;;25.32;42.42;101857.81;4993903;28;20057;-64
2021/10/22 07:56:21;;;;;;;7.03;2.90;;;;;;;25.06;42.34;101860.34;4993190;28;20413;-64
2021/10/22 07:58:50;;;;;;;4.20;2.72;;;;;;;24.78;42.12;101852.03;4993760;28;20539;-64
2021/10/22 08:01:19;;;;;;;3.97;2.67;;;;;;;24.42;42.02;101859.22;4993474;28;20038;-64
2021/10/22 08:03:47;;;;;;;5.57;3.53;;;;;;;23.97;42.42;101858.44;4992765;28;20539;-64
2021/10/22 08:06:15;;;;;;;4.90;3.20;;;;;;;23.92;42.75;101858.53;4993466;28;20039;-64
2021/10/22 08:08:44;;;;;;;5.07;2.90;;;;;;;23.81;42.79;101858.78;4993736;28;20054;-65
2021/10/22 08:11:14;;;;;;;4.85;2.70;;;;;;;24.04;43.31;101869.06;4993492;28;20046;-64
2021/10/22 08:13:42;;;;;;;5.03;2.97;;;;;;;24.37;43.16;101870.13;4993665;28;20035;-64
2021/10/22 08:16:09;;;;;;;5.20;2.40;;;;;;;24.77;42.99;101869.16;4993837;28;20051;-64
2021/10/22 08:18:38;;;;;;;4.68;2.63;;;;;;;25.14;42.21;101861.88;4993419;28;20062;-64
2021/10/22 08:21:17;;;;;;;4.32;2.20;;;;;;;25.38;41.05;101854.94;5012784;28;20116;-64
2021/10/22 08:23:47;;;;;;;4.75;2.45;;;;;;;25.55;40.41;101860.72;4995743;28;20042;-65
2021/10/22 08:26:15;;;;;;;4.57;2.20;;;;;;;25.40;39.94;101858.47;4992988;28;20039;-64
2021/10/22 08:28:43;;;;;;;9.60;2.38;;;;;;;25.35;39.88;101861.28;4993383;28;20055;-64
2021/10/22 08:31:10;;;;;;;9.30;2.65;;;;;;;25.30;39.85;101856.94;4992660;28;20034;-64
2021/10/22 08:33:38;;;;;;;5.28;3.55;;;;;;;25.57;39.92;101858.00;4993512;28;20043;-65
2021/10/22 08:36:07;;;;;;;3.72;2.45;;;;;;;25.89;39.47;101857.94;5012726;28;20084;-66
2021/10/22 08:38:35;;;;;;;5.88;3.35;;;;;;;25.82;39.04;101863.59;5012768;28;20046;-65
2021/10/22 08:41:08;;;;;;;4.90;3.22;;;;;;;25.66;38.98;101855.94;5013016;28;20052;-64
2021/10/22 08:43:36;;;;;;;3.50;2.63;;;;;;;25.65;38.80;101864.09;4996309;28;20042;-65
2021/10/22 08:46:06;;;;;;;5.05;3.03;;;;;;;25.46;39.47;101855.59;4992987;28;20049;-63
2021/10/22 08:48:33;;;;;;;5.70;3.95;;;;;;;25.33;39.36;101855.06;4993119;28;20081;-64
2021/10/22 08:51:01;;;;;;;4.25;2.72;;;;;;;25.34;39.19;101861.34;4993227;28;20058;-64
2021/10/22 08:53:29;;;;;;;3.85;2.15;;;;;;;25.14;38.66;101850.22;4992252;28;20419;-65
2021/10/22 08:55:57;;;;;;;4.25;2.10;;;;;;;25.09;38.91;101849.41;4993030;28;20046;-64
2021/10/22 08:58:26;;;;;;;4.43;1.75;;;;;;;25.22;38.96;101853.56;4992716;28;20046;-64
2021/10/22 09:00:53;;;;;;;3.05;2.00;;;;;;;25.31;39.37;101851.50;4992737;28;20042;-64
2021/10/22 09:03:21;;;;;;;4.35;2.13;;;;;;;25.58;39.04;101840.88;4991903;28;20030;-64
2021/10/22 09:05:59;;;;;;;3.38;1.70;;;;;;;25.63;38.05;101837.09;4992892;28;20050;-63
2021/10/22 09:08:31;;;;;;;3.90;1.80;;;;;;;25.60;37.95;101837.16;4992210;28;20042;-64
2021/10/22 09:10:59;;;;;;;4.38;1.95;;;;;;;25.69;37.94;101838.72;4992831;28;20038;-63
2021/10/22 09:13:33;;;;;;;3.80;1.73;;;;;;;25.63;37.92;101834.38;4992143;28;20405;-64
2021/10/22 09:16:00;;;;;;;;;;;;;;;25.34;37.97;101840.59;4993243;28;20061;-64
2021/10/22 09:18:30;;;;;;;1.83;1.33;;;;;;;25.31;38.81;101842.50;4992475;28;19921;-63
2021/10/22 09:20:59;;;;;;;3.65;1.95;;;;;;;25.37;39.29;101836.94;4992437;28;20034;-64
2021/10/22 09:23:30;;;;;;;6.40;2.20;;;;;;;25.56;39.28;101834.56;4992283;28;20097;-64
2021/10/22 09:26:16;;;;;;;4.45;2.10;;;;;;;25.77;38.37;101837.56;4992540;28;20058;-64
2021/10/22 09:28:46;;;;;;;3.10;2.10;;;;;;;25.78;38.18;101828.53;4991996;28;20096;-64
2021/10/22 09:31:15;;;;;;;4.30;1.90;;;;;;;25.97;38.44;101836.97;4992737;28;20042;-63
2021/10/22 09:34:00;;;;;;;3.92;2.08;;;;;;;25.83;37.75;101825.66;4991695;28;20046;-64
2021/10/22 09:36:35;;;;;;;4.45;2.00;;;;;;;25.64;37.86;101830.75;4992077;28;20039;-63
2021/10/22 09:39:07;;;;;;;3.17;1.73;;;;;;;25.61;38.36;101832.66;4991867;28;20042;-63
2021/10/22 09:41:36;;;;;;;4.03;2.00;;;;;;;25.65;38.91;101823.53;4991967;28;20128;-64
2021/10/22 09:47:16;;;;;;;5.22;2.00;;;;;;;25.96;38.14;101829.78;5069425;27;20355;-63
2021/10/22 09:49:46;;;;;;;3.40;2.10;;;;;;;25.94;38.01;101828.91;5087981;28;20036;-63
2021/10/22 09:52:16;;;;;;;5.45;2.35;;;;;;;25.95;37.78;101827.09;5086586;28;20052;-63
2021/10/22 09:54:43;;;;;;;4.15;1.95;;;;;;;25.99;37.94;101828.81;5075480;28;20054;-62
2021/10/22 09:57:11;;;;;;;3.67;1.80;;;;;;;26.00;37.78;101826.03;5087768;28;20048;-63
2021/10/22 09:59:38;;;;;;;6.20;2.15;;;;;;;26.04;37.43;101818.72;5088594;28;20040;-62
2021/10/22 10:02:13;;;;;;;3.35;1.70;;;;;;;26.16;37.25;101813.78;5078022;28;20138;-63
2021/10/22 10:04:41;;;;;;;2.60;2.00;;;;;;;26.16;37.41;101815.59;5063696;28;20045;-63
2021/10/22 10:07:08;;;;;;;4.20;2.15;;;;;;;26.19;37.65;101818.19;5068362;28;20060;-62
2021/10/22 10:09:39;;;;;;;4.93;2.20;;;;;;;26.23;37.77;101819.88;5066402;28;20040;-63
2021/10/22 10:12:08;;;;;;;3.97;2.30;;;;;;;26.27;37.73;101810.75;5068996;28;20049;-63
2021/10/22 10:14:35;;;;;;;5.05;1.98;;;;;;;26.24;37.46;101812.66;5078485;28;20098;-63
2021/10/22 10:17:04;;;;;;;4.13;1.98;;;;;;;26.08;37.98;101810.44;5087406;28;20041;-62
2021/10/22 10:19:35;;;;;;;4.43;2.40;;;;;;;25.96;38.05;101810.81;5087837;28;20047;-63
2021/10/22 10:22:05;;;;;;;3.70;1.80;;;;;;;25.83;38.13;101809.44;5080355;28;20083;-63
2021/10/22 10:24:35;;;;;;;4.63;1.95;;;;;;;25.62;38.31;101805.56;5067138;28;20041;-62
2021/10/22 10:27:05;;;;;;;2.75;1.95;;;;;;;25.61;38.61;101802.88;5067646;28;20044;-62
2021/10/22 10:29:34;;;;;;;7.00;2.47;;;;;;;25.62;39.05;101805.56;5070199;28;20040;-63
2021/10/22 10:32:04;;;;;;;6.05;2.33;;;;;;;25.61;38.83;101805.59;5066011;28;20044;-63
2021/10/22 10:34:39;;;;;;;5.35;1.92;;;;;;;25.58;38.74;101803.00;5067404;28;20361;-63
2021/10/22 10:37:21;;;;;;;6.72;2.10;;;;;;;25.50;38.86;101799.59;5067632;28;20043;-63
2021/10/22 10:39:57;;;;;;;3.40;2.10;;;;;;;25.36;39.60;101795.47;5067732;28;20516;-63
2021/10/22 10:42:27;;;;;;;5.18;2.13;;;;;;;25.35;39.80;101796.41;5067622;28;20127;-62
2021/10/22 10:44:56;;;;;;;2.72;1.90;;;;;;;25.35;39.50;101801.81;5066518;28;20049;-62
2021/10/22 10:47:43;;;;;;;5.18;2.45;;;;;;;25.33;39.74;101795.59;5067149;28;20045;-62
2021/10/22 10:50:14;;;;;;;4.07;2.10;;;;;;;25.25;39.94;101796.72;5064390;28;20115;-62
2021/10/22 10:52:56;;;;;;;3.63;2.25;;;;;;;25.14;40.51;101791.59;5066453;28;20511;-63
2021/10/22 10:55:28;;;;;;;4.90;2.65;;;;;;;25.00;40.92;101789.31;5067037;28;20051;-62
2021/10/22 10:57:59;;;;;;;5.68;2.50;;;;;;;24.99;40.86;101792.06;5055447;28;20057;-62
2021/10/22 11:00:30;;;;;;;4.80;2.60;;;;;;;25.01;40.44;101787.47;5067925;28;20403;-63
2021/10/22 11:03:22;;;;;;;4.18;2.28;;;;;;;25.02;40.77;101786.53;5073607;28;20037;-62
2021/10/22 11:06:13;;;;;;;5.03;2.90;;;;;;;25.10;41.03;101773.72;5072923;28;20059;-62
2021/10/22 11:08:52;;;;;;;4.95;2.38;;;;;;;25.14;40.71;101782.63;5073073;28;20036;-62
2021/10/22 11:11:28;;;;;;;3.40;2.20;;;;;;;25.19;40.55;101775.28;5053294;28;20045;-62
2021/10/22 11:13:59;;;;;;;4.07;2.20;;;;;;;25.20;40.26;101772.53;5052904;28;20079;-63
2021/10/22 11:16:32;;;;;;;4.75;2.22;;;;;;;25.21;40.11;101771.56;5053163;28;20082;-63
2021/10/22 11:19:01;;;;;;;3.80;2.85;;;;;;;25.19;40.04;101768.06;5055528;28;20033;-62
2021/10/22 11:21:32;;;;;;;3.38;2.15;;;;;;;25.12;40.27;101770.97;5073266;28;20436;-62
2021/10/22 11:24:01;;;;;;;5.63;2.10;;;;;;;24.86;40.44;101768.97;5072778;28;20045;-63
2021/10/22 11:26:29;;;;;;;5.43;2.50;;;;;;;24.60;40.60;101769.66;5073329;28;20158;-62
2021/10/22 11:28:58;;;;;;;4.60;2.60;;;;;;;24.43;41.40;101770.09;5068239;28;20048;-63
2021/10/22 11:31:40;;;;;;;4.30;2.45;;;;;;;24.36;41.35;101768.47;5069304;28;20436;-62
2021/10/22 11:34:13;;;;;;;5.05;2.65;;;;;;;24.32;41.67;101772.19;5058415;28;20580;-64
2021/10/22 11:36:48;;;;;;;4.60;2.58;;;;;;;24.22;41.93;101766.09;5053312;28;20037;-63
2021/10/22 11:39:21;;;;;;;5.30;2.55;;;;;;;24.15;42.02;101759.09;5058163;28;20045;-64